Time;durP1;ratioP1;P1;durP2;ratioP2;P2;SDS_P1;SDS_P2;PMS_P1;PMS_P2;Temp;Humidity;BMP_temperature;BMP_pressure;BME280_temperature;BME280_humidity;BME280_pressure;Samples;Min_cycle;Max_cycle;Signal;HPM_P1;HPM_P2
2022/04/08 00:00:32;;;;;;;;;;;7.70;99.90;;;;;;5094338;28;19977;-70
2022/04/08 00:03:00;;;;;;;;;;;7.60;99.90;;;;;;5100905;28;19938;-70
2022/04/08 00:05:27;;;;;;;;;;;7.40;99.90;;;;;;5108441;28;20404;-70
2022/04/08 00:07:53;;;;;;;;;;;7.40;99.90;;;;;;5090144;28;20366;-70
2022/04/08 00:10:20;;;;;;;;;;;7.40;99.90;;;;;;5102669;28;19930;-70
2022/04/08 00:12:47;;;;;;;;;;;7.40;99.90;;;;;;5102940;28;19931;-70
2022/04/08 00:15:13;;;;;;;;;;;7.40;99.90;;;;;;5081422;28;20018;-70
2022/04/08 00:17:40;;;;;;;;;;;7.40;99.90;;;;;;5103236;28;19924;-71
2022/04/08 00:20:07;;;;;;;;;;;7.50;99.90;;;;;;5098438;28;20016;-70
2022/04/08 00:22:39;;;;;;;;;;;7.40;99.90;;;;;;5090506;28;20019;-71
2022/04/08 00:25:06;;;;;;;;;;;7.50;99.90;;;;;;5085763;28;20007;-70
2022/04/08 00:27:33;;;;;;;;;;;7.40;99.90;;;;;;5095219;28;20506;-72
2022/04/08 00:30:00;;;;;;;;;;;7.40;99.90;;;;;;5109914;28;19924;-70
2022/04/08 00:32:27;;;;;;;;;;;7.40;99.90;;;;;;5097207;28;20318;-70
2022/04/08 00:34:53;;;;;;;;;;;7.20;99.90;;;;;;5104283;28;19959;-71
2022/04/08 00:37:20;;;;;;;;;;;7.20;99.90;;;;;;5107010;28;20014;-70
2022/04/08 00:39:50;;;;;;;;;;;7.20;99.90;;;;;;5105270;28;19952;-70
2022/04/08 00:42:16;;;;;;;;;;;7.20;99.90;;;;;;5102196;28;19963;-70
2022/04/08 00:44:43;;;;;;;;;;;7.20;99.90;;;;;;5099830;28;19928;-70
2022/04/08 00:47:11;;;;;;;;;;;7.20;99.90;;;;;;5079393;28;19925;-70
2022/04/08 00:49:40;;;;;;;;;;;7.20;99.90;;;;;;5103231;28;19924;-70
2022/04/08 00:52:07;;;;;;;;;;;7.10;99.90;;;;;;5092142;28;19928;-70
2022/04/08 00:54:33;;;;;;;;;;;7.10;99.90;;;;;;5107921;28;19924;-70
2022/04/08 00:57:00;;;;;;;;;;;7.10;99.90;;;;;;5106433;28;19923;-69
2022/04/08 00:59:27;;;;;;;;;;;7.10;99.90;;;;;;5105617;28;20014;-70
2022/04/08 01:01:56;;;;;;;;;;;7.10;99.90;;;;;;5109718;28;19966;-71
2022/04/08 01:04:23;;;;;;;;;;;7.00;99.90;;;;;;5106584;27;19924;-69
2022/04/08 01:06:50;;;;;;;;;;;7.00;99.90;;;;;;5104156;28;19931;-70
2022/04/08 01:09:17;;;;;;;;;;;7.00;99.90;;;;;;5085455;28;19930;-70
2022/04/08 01:11:43;;;;;;;;;;;7.00;99.90;;;;;;5098749;28;19938;-69
2022/04/08 01:14:11;;;;;;;;;;;6.90;99.90;;;;;;5108838;28;20267;-70
2022/04/08 01:16:37;;;;;;;;;;;6.90;99.90;;;;;;5105306;28;19985;-70
2022/04/08 01:19:05;;;;;;;;;;;6.90;99.90;;;;;;5105815;28;19924;-70
2022/04/08 01:21:32;;;;;;;;;;;6.90;99.90;;;;;;5096494;28;20002;-69
2022/04/08 01:23:59;;;;;;;;;;;6.90;99.90;;;;;;5072261;28;19931;-70
2022/04/08 01:26:26;;;;;;;;;;;6.90;99.90;;;;;;5084417;28;19932;-70
2022/04/08 01:28:56;;;;;;;;;;;6.80;99.90;;;;;;5109224;28;19985;-70
2022/04/08 01:31:29;;;;;;;;;;;6.80;99.90;;;;;;5112580;28;19941;-70
2022/04/08 01:33:56;;;;;;;;;;;6.70;99.90;;;;;;5089890;28;19924;-70
2022/04/08 01:36:22;;;;;;;;;;;6.70;99.90;;;;;;5086362;28;19928;-71
2022/04/08 01:38:49;;;;;;;;;;;6.80;99.90;;;;;;5106620;28;19924;-70
2022/04/08 01:41:16;;;;;;;;;;;6.80;99.90;;;;;;5107935;28;20018;-70
2022/04/08 01:43:43;;;;;;;;;;;6.80;99.90;;;;;;5105820;28;19924;-70
2022/04/08 01:46:10;;;;;;;;;;;6.80;99.90;;;;;;5107830;27;19962;-71
2022/04/08 01:48:37;;;;;;;;;;;6.80;99.90;;;;;;5102674;28;20034;-70
2022/04/08 01:51:04;;;;;;;;;;;6.70;99.90;;;;;;5111243;28;19973;-70
2022/04/08 01:53:30;;;;;;;;;;;6.70;99.90;;;;;;5096721;28;19928;-71
2022/04/08 01:55:57;;;;;;;;;;;6.60;99.90;;;;;;5106473;28;20409;-70
2022/04/08 01:58:24;;;;;;;;;;;6.60;99.90;;;;;;5111180;28;19923;-70
2022/04/08 02:00:50;;;;;;;;;;;6.60;99.90;;;;;;5111016;28;20010;-71
2022/04/08 02:03:20;;;;;;;;;;;6.60;99.90;;;;;;5097711;28;19924;-69
2022/04/08 02:05:47;;;;;;;;;;;6.60;99.90;;;;;;5103599;28;19927;-70
2022/04/08 02:08:13;;;;;;;;;;;6.50;99.90;;;;;;5107577;28;20006;-70
2022/04/08 02:10:40;;;;;;;;;;;6.50;99.90;;;;;;5110420;28;19958;-70
2022/04/08 02:13:10;;;;;;;;;;;6.50;99.90;;;;;;5082786;28;19930;-70
2022/04/08 02:15:37;;;;;;;;;;;6.40;99.90;;;;;;5113703;28;19930;-71
2022/04/08 02:18:04;;;;;;;;;;;6.40;99.90;;;;;;5110245;28;19923;-70
2022/04/08 02:20:31;;;;;;;;;;;6.40;99.90;;;;;;5103514;28;20417;-70
2022/04/08 02:22:59;;;;;;;;;;;6.40;99.90;;;;;;5106726;28;19924;-70
2022/04/08 02:25:26;;;;;;;;;;;6.30;99.90;;;;;;5104860;28;20043;-69
2022/04/08 02:27:53;;;;;;;;;;;6.30;99.90;;;;;;5098154;28;19924;-71
2022/04/08 02:30:20;;;;;;;;;;;6.20;99.90;;;;;;5104235;28;19930;-69
2022/04/08 02:32:47;;;;;;;;;;;6.10;99.90;;;;;;5098759;28;19928;-70
2022/04/08 02:35:13;;;;;;;;;;;6.20;99.90;;;;;;5106893;28;19927;-70
2022/04/08 02:37:40;;;;;;;;;;;6.10;99.90;;;;;;5103880;28;19924;-70
2022/04/08 02:40:07;;;;;;;;;;;6.20;99.90;;;;;;5107950;28;19967;-71
2022/04/08 02:42:34;;;;;;;;;;;6.40;99.90;;;;;;5112287;28;19924;-69
2022/04/08 02:45:00;;;;;;;;;;;6.50;99.90;;;;;;5093541;28;19927;-70
2022/04/08 02:47:27;;;;;;;;;;;6.50;99.90;;;;;;5092818;28;19924;-70
2022/04/08 02:49:54;;;;;;;;;;;6.60;99.90;;;;;;5097521;28;19924;-70
2022/04/08 02:52:23;;;;;;;;;;;6.60;99.90;;;;;;5109254;28;19981;-69
2022/04/08 02:54:49;;;;;;;;;;;6.60;99.90;;;;;;5098327;28;19931;-70
2022/04/08 02:57:16;;;;;;;;;;;6.70;99.90;;;;;;5109722;28;20000;-70
2022/04/08 02:59:42;;;;;;;;;;;6.70;99.90;;;;;;5103216;28;20400;-70
2022/04/08 03:02:09;;;;;;;;;;;6.70;99.90;;;;;;5108356;28;19924;-69
2022/04/08 03:04:38;;;;;;;;;;;6.80;99.90;;;;;;5091229;28;19924;-69
2022/04/08 03:07:05;;;;;;;;;;;6.80;99.90;;;;;;5096890;28;19930;-70
2022/04/08 03:09:32;;;;;;;;;;;6.80;99.90;;;;;;5105858;28;20481;-69
2022/04/08 03:11:58;;;;;;;;;;;6.80;99.90;;;;;;5106954;28;20014;-70
2022/04/08 03:14:25;;;;;;;;;;;6.80;99.90;;;;;;5109981;28;20480;-69
2022/04/08 03:16:52;;;;;;;;;;;6.70;99.90;;;;;;5106989;28;20417;-70
2022/04/08 03:19:18;;;;;;;;;;;6.60;99.90;;;;;;5109449;28;19923;-70
2022/04/08 03:21:45;;;;;;;;;;;6.60;99.90;;;;;;5108622;28;20048;-70
2022/04/08 03:24:12;;;;;;;;;;;6.50;99.90;;;;;;5108599;28;19931;-69
2022/04/08 03:26:39;;;;;;;;;;;6.30;99.90;;;;;;5107342;28;19955;-70
2022/04/08 03:29:06;;;;;;;;;;;6.20;99.90;;;;;;5105193;28;19924;-69
2022/04/08 03:31:33;;;;;;;;;;;6.20;99.90;;;;;;5111696;28;20331;-69
2022/04/08 03:34:00;;;;;;;;;;;6.10;99.90;;;;;;5082523;28;19977;-70
2022/04/08 03:36:26;;;;;;;;;;;6.10;99.90;;;;;;5102542;28;19967;-69
2022/04/08 03:38:53;;;;;;;;;;;6.00;99.90;;;;;;5104098;28;19923;-70
2022/04/08 03:41:22;;;;;;;;;;;6.00;99.90;;;;;;5096671;28;19951;-70
2022/04/08 03:43:49;;;;;;;;;;;6.00;99.90;;;;;;5103296;28;20417;-69
2022/04/08 03:46:16;;;;;;;;;;;6.00;99.90;;;;;;5093140;28;19986;-69
2022/04/08 03:48:43;;;;;;;;;;;5.90;99.90;;;;;;5101711;28;19924;-70
2022/04/08 03:51:10;;;;;;;;;;;5.90;99.90;;;;;;5104513;28;19923;-69
2022/04/08 03:53:37;;;;;;;;;;;5.90;99.90;;;;;;5091741;28;19928;-69
2022/04/08 03:56:05;;;;;;;;;;;5.80;99.90;;;;;;5104147;28;20632;-69
2022/04/08 03:58:31;;;;;;;;;;;5.80;99.90;;;;;;5100138;28;19928;-70
2022/04/08 04:00:58;;;;;;;;;;;5.80;99.90;;;;;;5079315;28;19978;-69
2022/04/08 04:03:25;;;;;;;;;;;5.80;99.90;;;;;;5109506;28;19931;-69
2022/04/08 04:05:52;;;;;;;;;;;5.80;99.90;;;;;;5107928;28;19924;-69
2022/04/08 04:08:21;;;;;;;;;;;5.70;99.90;;;;;;5107096;28;19923;-69
2022/04/08 04:10:48;;;;;;;;;;;5.80;99.90;;;;;;5105498;28;19936;-69
2022/04/08 04:13:15;;;;;;;;;;;5.70;99.90;;;;;;5106907;28;19959;-70
2022/04/08 04:15:42;;;;;;;;;;;5.80;99.90;;;;;;5100711;28;19931;-70
2022/04/08 04:18:12;;;;;;;;;;;5.80;99.90;;;;;;5103969;28;19924;-70
2022/04/08 04:20:39;;;;;;;;;;;5.80;99.90;;;;;;5101904;28;19930;-69
2022/04/08 04:23:05;;;;;;;;;;;5.80;99.90;;;;;;5095176;28;20469;-70
2022/04/08 04:25:32;;;;;;;;;;;5.80;99.90;;;;;;5106953;28;19930;-70
2022/04/08 04:27:59;;;;;;;;;;;5.80;99.90;;;;;;5101414;28;20014;-69
2022/04/08 04:30:28;;;;;;;;;;;5.70;99.90;;;;;;5110630;28;19976;-69
2022/04/08 04:32:56;;;;;;;;;;;5.60;99.90;;;;;;5105536;28;20018;-70
2022/04/08 04:35:23;;;;;;;;;;;5.50;99.90;;;;;;5102803;28;19927;-69
2022/04/08 04:37:57;;;;;;;;;;;5.30;99.90;;;;;;5101451;28;19924;-69
2022/04/08 04:40:25;;;;;;;;;;;5.10;99.90;;;;;;5100712;28;19928;-70
2022/04/08 04:42:52;;;;;;;;;;;5.00;99.90;;;;;;5109264;28;19923;-69
2022/04/08 04:45:19;;;;;;;;;;;4.90;99.90;;;;;;5076409;28;20019;-69
2022/04/08 04:47:46;;;;;;;;;;;4.90;99.90;;;;;;5098934;28;19977;-70
2022/04/08 04:50:13;;;;;;;;;;;4.90;99.90;;;;;;5095884;28;19928;-68
2022/04/08 04:52:39;;;;;;;;;;;4.90;99.90;;;;;;5102867;28;20297;-69
2022/04/08 04:55:06;;;;;;;;;;;4.90;99.90;;;;;;5110424;28;20437;-69
2022/04/08 04:57:34;;;;;;;;;;;4.90;99.90;;;;;;5077251;28;20309;-69
2022/04/08 05:00:01;;;;;;;;;;;4.90;99.90;;;;;;5104477;28;20051;-69
2022/04/08 05:02:28;;;;;;;;;;;4.90;99.90;;;;;;5090849;28;19932;-69
2022/04/08 05:04:55;;;;;;;;;;;4.90;99.90;;;;;;5116792;28;19924;-69
2022/04/08 05:07:23;;;;;;;;;;;5.00;99.90;;;;;;5111268;28;19934;-69
2022/04/08 05:09:50;;;;;;;;;;;5.00;99.90;;;;;;5115906;28;19932;-69
2022/04/08 05:12:17;;;;;;;;;;;5.10;99.90;;;;;;5111836;28;20019;-71
2022/04/08 05:14:43;;;;;;;;;;;5.20;99.90;;;;;;5111896;27;19928;-70
2022/04/08 05:17:10;;;;;;;;;;;5.30;99.90;;;;;;5113948;27;19924;-70
2022/04/08 05:19:37;;;;;;;;;;;5.40;99.90;;;;;;5114621;28;19927;-70
2022/04/08 05:22:04;;;;;;;;;;;5.50;99.90;;;;;;5103329;27;20020;-70
2022/04/08 05:24:31;;;;;;;;;;;5.60;99.90;;;;;;5108731;28;20445;-70
2022/04/08 05:26:57;;;;;;;;;;;5.60;99.90;;;;;;5114843;27;19928;-70
2022/04/08 05:29:25;;;;;;;;;;;5.70;99.90;;;;;;5099353;28;19924;-70
2022/04/08 05:31:52;;;;;;;;;;;5.80;99.90;;;;;;5115586;28;19924;-71
2022/04/08 05:34:18;;;;;;;;;;;5.90;99.90;;;;;;5094730;28;19931;-70
2022/04/08 05:36:45;;;;;;;;;;;6.10;99.90;;;;;;5112701;28;19923;-70
2022/04/08 05:39:12;;;;;;;;;;;6.10;99.90;;;;;;5089699;28;19930;-69
2022/04/08 05:41:38;;;;;;;;;;;6.20;99.90;;;;;;5111626;27;19930;-69
2022/04/08 05:44:05;;;;;;;;;;;6.20;99.90;;;;;;5108099;28;20536;-70
2022/04/08 05:46:32;;;;;;;;;;;6.40;99.90;;;;;;5105697;27;20007;-70
2022/04/08 05:49:03;;;;;;;;;;;6.40;99.90;;;;;;5085465;28;20712;-71
2022/04/08 05:51:30;;;;;;;;;;;6.50;99.90;;;;;;5099816;28;20388;-70
2022/04/08 05:54:06;;;;;;;;;;;6.60;99.90;;;;;;5103912;27;19923;-69
2022/04/08 05:56:33;;;;;;;;;;;6.70;99.90;;;;;;5099562;27;19923;-70
2022/04/08 05:59:00;;;;;;;;;;;6.70;99.90;;;;;;5078066;28;19972;-70
2022/04/08 06:01:31;;;;;;;;;;;6.80;99.90;;;;;;5104107;27;19931;-70
2022/04/08 06:03:57;;;;;;;;;;;6.90;99.90;;;;;;5108004;27;19924;-70
2022/04/08 06:06:25;;;;;;;;;;;7.00;99.90;;;;;;5093069;28;20041;-70
2022/04/08 06:08:51;;;;;;;;;;;7.10;99.90;;;;;;5097406;28;19931;-68
2022/04/08 06:11:18;;;;;;;;;;;7.20;99.90;;;;;;5101662;28;20944;-69
2022/04/08 06:13:44;;;;;;;;;;;7.20;99.90;;;;;;5083547;28;19940;-69
2022/04/08 06:16:11;;;;;;;;;;;7.20;99.90;;;;;;5112099;27;19991;-69
2022/04/08 06:18:38;;;;;;;;;;;7.40;99.90;;;;;;5105128;28;19924;-69
2022/04/08 06:21:05;;;;;;;;;;;7.50;99.90;;;;;;5099857;28;19924;-69
2022/04/08 06:23:31;;;;;;;;;;;7.60;99.90;;;;;;5098293;28;20031;-69
2022/04/08 06:25:58;;;;;;;;;;;7.70;99.90;;;;;;5084502;28;19933;-70
2022/04/08 06:28:25;;;;;;;;;;;7.80;99.90;;;;;;5105749;27;20014;-69
2022/04/08 06:30:55;;;;;;;;;;;7.90;99.90;;;;;;5102555;28;19931;-70
2022/04/08 06:33:23;;;;;;;;;;;7.90;99.90;;;;;;5099023;27;19930;-69
2022/04/08 06:35:52;;;;;;;;;;;7.90;99.90;;;;;;5091532;28;20286;-70
2022/04/08 06:38:19;;;;;;;;;;;7.70;99.90;;;;;;5109627;28;20369;-70
2022/04/08 06:40:46;;;;;;;;;;;7.60;99.90;;;;;;5106532;28;20489;-70
2022/04/08 06:43:12;;;;;;;;;;;7.60;99.90;;;;;;5090175;28;19924;-70
2022/04/08 06:45:39;;;;;;;;;;;7.50;99.90;;;;;;5095475;28;19920;-70
2022/04/08 06:48:06;;;;;;;;;;;7.50;99.90;;;;;;5079940;28;20015;-70
2022/04/08 06:50:33;;;;;;;;;;;7.40;99.90;;;;;;5100993;28;19928;-70
2022/04/08 06:53:00;;;;;;;;;;;7.40;99.90;;;;;;5107018;27;20294;-70
2022/04/08 06:55:31;;;;;;;;;;;7.40;99.90;;;;;;5101525;28;20351;-70
2022/04/08 06:57:58;;;;;;;;;;;7.50;99.90;;;;;;5098956;28;20576;-71
2022/04/08 07:00:26;;;;;;;;;;;7.50;99.90;;;;;;5102161;28;20223;-70
2022/04/08 07:02:53;;;;;;;;;;;7.50;99.90;;;;;;5093665;28;19930;-69
2022/04/08 07:05:20;;;;;;;;;;;7.50;99.90;;;;;;5084135;28;19957;-69
2022/04/08 07:07:47;;;;;;;;;;;7.50;99.90;;;;;;5105959;28;19920;-70
2022/04/08 07:10:16;;;;;;;;;;;7.70;99.90;;;;;;5102660;28;20015;-70
2022/04/08 07:12:43;;;;;;;;;;;7.80;99.90;;;;;;5099815;28;19930;-70
2022/04/08 07:15:12;;;;;;;;;;;8.00;99.90;;;;;;5106231;27;19919;-69
2022/04/08 07:17:39;;;;;;;;;;;8.10;99.90;;;;;;5106140;27;19919;-69
2022/04/08 07:20:14;;;;;;;;;;;8.30;99.90;;;;;;5117627;27;20019;-70
2022/04/08 07:22:41;;;;;;;;;;;8.30;99.90;;;;;;5105101;28;19924;-70
2022/04/08 07:25:08;;;;;;;;;;;8.50;99.90;;;;;;5100842;28;19970;-69
2022/04/08 07:27:45;;;;;;;;;;;8.60;99.90;;;;;;5102415;28;20454;-69
2022/04/08 07:30:14;;;;;;;;;;;8.50;99.90;;;;;;5105437;28;19962;-69
2022/04/08 07:32:41;;;;;;;;;;;8.60;99.90;;;;;;5103204;28;19919;-69
2022/04/08 07:35:10;;;;;;;;;;;8.60;99.90;;;;;;5104636;28;19955;-73
2022/04/08 07:37:37;;;;;;;;;;;8.70;99.90;;;;;;5087667;28;20710;-71
2022/04/08 07:40:07;;;;;;;;;;;8.70;99.90;;;;;;5087646;28;19920;-70
2022/04/08 07:42:34;;;;;;;;;;;8.90;99.90;;;;;;5109253;28;19923;-69
2022/04/08 07:45:01;;;;;;;;;;;9.00;99.90;;;;;;5105092;28;20370;-69
2022/04/08 07:47:28;;;;;;;;;;;9.00;99.90;;;;;;5098442;28;20010;-69
2022/04/08 07:49:56;;;;;;;;;;;9.10;99.90;;;;;;5098998;28;20597;-69
2022/04/08 07:52:22;;;;;;;;;;;9.10;99.90;;;;;;5103485;27;19963;-69
2022/04/08 07:54:49;;;;;;;;;;;9.10;99.90;;;;;;5079385;28;19926;-69
2022/04/08 07:57:16;;;;;;;;;;;9.10;99.90;;;;;;5101454;27;19920;-69
2022/04/08 07:59:43;;;;;;;;;;;9.20;99.90;;;;;;5102824;27;19920;-69
2022/04/08 08:02:10;;;;;;;;;;;9.20;99.90;;;;;;5099974;28;19920;-69
2022/04/08 08:04:37;;;;;;;;;;;9.20;99.90;;;;;;5106827;27;19919;-69
2022/04/08 08:07:04;;;;;;;;;;;9.30;99.90;;;;;;5099739;27;19920;-69
2022/04/08 08:09:32;;;;;;;;;;;9.30;99.90;;;;;;5105385;28;19919;-70
2022/04/08 08:12:19;;;;;;;;;;;9.30;99.90;;;;;;5097877;28;19927;-71
2022/04/08 08:14:45;;;;;;;;;;;9.40;99.90;;;;;;5096750;27;20019;-68
2022/04/08 08:17:15;;;;;;;;;;;9.50;99.90;;;;;;5092330;28;20538;-68
2022/04/08 08:19:42;;;;;;;;;;;9.60;99.90;;;;;;5081316;28;19943;-69
2022/04/08 08:22:08;;;;;;;;;;;9.70;99.90;;;;;;5106223;28;20374;-68
2022/04/08 08:24:35;;;;;;;;;;;9.60;99.90;;;;;;5099582;28;19920;-69
2022/04/08 08:27:02;;;;;;;;;;;9.70;99.90;;;;;;5094985;28;19919;-69
2022/04/08 08:29:29;;;;;;;;;;;9.80;99.90;;;;;;5090237;27;19928;-69
2022/04/08 08:31:55;;;;;;;;;;;9.60;99.90;;;;;;5083029;28;20032;-69
2022/04/08 08:34:23;;;;;;;;;;;9.70;99.90;;;;;;5080204;28;19920;-69
2022/04/08 08:36:51;;;;;;;;;;;9.70;99.90;;;;;;5101327;28;19920;-69
2022/04/08 08:39:19;;;;;;;;;;;9.80;99.90;;;;;;5100780;28;20377;-69
2022/04/08 08:41:48;;;;;;;;;;;10.00;99.90;;;;;;5103529;28;19923;-69
2022/04/08 08:44:16;;;;;;;;;;;10.00;99.90;;;;;;5105140;28;19920;-69
2022/04/08 08:46:43;;;;;;;;;;;10.00;99.90;;;;;;5102591;28;19931;-69
2022/04/08 08:49:14;;;;;;;;;;;10.10;99.90;;;;;;5100587;28;19927;-69
2022/04/08 08:51:43;;;;;;;;;;;10.10;99.90;;;;;;5100981;27;19998;-69
2022/04/08 08:54:10;;;;;;;;;;;10.20;99.90;;;;;;5102387;28;19920;-69
2022/04/08 08:56:37;;;;;;;;;;;10.30;99.90;;;;;;5101575;28;19942;-69
2022/04/08 08:59:03;;;;;;;;;;;10.20;99.90;;;;;;5107512;28;19924;-69
2022/04/08 09:01:30;;;;;;;;;;;10.20;99.90;;;;;;5096458;28;19928;-69
2022/04/08 09:03:57;;;;;;;;;;;10.10;99.90;;;;;;5102472;28;19924;-70
2022/04/08 09:06:23;;;;;;;;;;;9.80;99.90;;;;;;5105274;28;20339;-69
2022/04/08 09:08:55;;;;;;;;;;;9.80;99.90;;;;;;5092046;28;19919;-69
2022/04/08 09:11:28;;;;;;;;;;;9.70;99.90;;;;;;5106720;28;19942;-69
2022/04/08 09:14:00;;;;;;;;;;;9.50;99.90;;;;;;5086568;28;20411;-69
2022/04/08 09:16:27;;;;;;;;;;;9.30;99.90;;;;;;5096678;28;19934;-69
2022/04/08 09:18:54;;;;;;;;;;;9.10;99.90;;;;;;5097057;28;19996;-69
2022/04/08 09:21:22;;;;;;;;;;;8.90;99.90;;;;;;5099671;28;19924;-69
2022/04/08 09:23:48;;;;;;;;;;;8.70;99.90;;;;;;5109353;28;19926;-70
2022/04/08 09:26:19;;;;;;;;;;;8.40;99.90;;;;;;5104910;28;19920;-70
2022/04/08 09:28:52;;;;;;;;;;;8.20;99.90;;;;;;5107600;28;19972;-69
2022/04/08 09:31:22;;;;;;;;;;;8.00;99.90;;;;;;5093010;28;20283;-69
2022/04/08 09:33:50;;;;;;;;;;;7.90;99.90;;;;;;5075103;28;20430;-70
2022/04/08 09:36:30;;;;;;;;;;;8.00;99.90;;;;;;5083683;28;20420;-70
2022/04/08 09:38:57;;;;;;;;;;;7.90;99.90;;;;;;5098418;28;20341;-69
2022/04/08 09:41:35;;;;;;;;;;;7.80;99.90;;;;;;5100120;28;19928;-71
2022/04/08 09:44:02;;;;;;;;;;;7.70;99.90;;;;;;5097496;28;19923;-70
2022/04/08 09:46:29;;;;;;;;;;;7.60;99.90;;;;;;5094242;28;20343;-70
2022/04/08 09:48:55;;;;;;;;;;;7.60;99.90;;;;;;5102852;28;20496;-69
2022/04/08 09:51:23;;;;;;;;;;;7.70;99.90;;;;;;5100831;28;19924;-70
2022/04/08 09:53:53;;;;;;;;;;;7.80;99.90;;;;;;5112442;27;19923;-70
2022/04/08 09:56:21;;;;;;;;;;;7.80;99.90;;;;;;5089174;28;20006;-70
2022/04/08 09:58:50;;;;;;;;;;;7.80;99.90;;;;;;5099683;27;19955;-71
2022/04/08 10:01:17;;;;;;;;;;;7.70;99.90;;;;;;5087142;28;19930;-70
2022/04/08 10:03:44;;;;;;;;;;;7.50;99.90;;;;;;5102444;28;19927;-70
2022/04/08 10:06:12;;;;;;;;;;;7.50;99.90;;;;;;5088034;28;20408;-70
2022/04/08 10:08:38;;;;;;;;;;;7.50;99.90;;;;;;5079047;28;19967;-71
2022/04/08 10:11:24;;;;;;;;;;;7.40;99.90;;;;;;5105202;28;20006;-70
2022/04/08 10:14:07;;;;;;;;;;;7.40;99.90;;;;;;5105946;28;20001;-71
2022/04/08 10:16:36;;;;;;;;;;;7.40;99.90;;;;;;5084744;28;20018;-72
2022/04/08 10:19:06;;;;;;;;;;;7.30;99.90;;;;;;5101868;28;20853;-71
2022/04/08 10:21:40;;;;;;;;;;;7.10;99.90;;;;;;5085454;28;20161;-72
2022/04/08 10:24:09;;;;;;;;;;;7.00;99.90;;;;;;5106838;28;19928;-74
2022/04/08 10:26:37;;;;;;;;;;;6.90;99.90;;;;;;5106203;28;20022;-73
2022/04/08 10:29:13;;;;;;;;;;;6.80;99.90;;;;;;5100974;28;20087;-73
2022/04/08 10:31:40;;;;;;;;;;;6.60;99.90;;;;;;5108747;28;20443;-73
2022/04/08 10:34:06;;;;;;;;;;;6.40;99.90;;;;;;5104015;27;19927;-73
2022/04/08 10:36:37;;;;;;;;;;;6.40;99.90;;;;;;5101346;28;19923;-73
2022/04/08 10:39:13;;;;;;;;;;;6.30;99.90;;;;;;5103873;28;19947;-73
2022/04/08 10:42:00;;;;;;;;;;;6.20;99.90;;;;;;5099139;27;19963;-73
2022/04/08 10:44:30;;;;;;;;;;;6.20;99.90;;;;;;5106042;28;20324;-75
2022/04/08 10:46:59;;;;;;;;;;;6.20;99.90;;;;;;5108918;28;20034;-75
2022/04/08 10:49:26;;;;;;;;;;;6.30;99.90;;;;;;5100854;28;20010;-75
2022/04/08 10:51:53;;;;;;;;;;;6.30;99.90;;;;;;5110286;28;19998;-76
2022/04/08 10:54:20;;;;;;;;;;;6.40;99.90;;;;;;5089031;28;19924;-76
2022/04/08 10:56:59;;;;;;;;;;;6.40;99.90;;;;;;5076943;28;19955;-77
2022/04/08 10:59:26;;;;;;;;;;;6.50;99.90;;;;;;5100476;28;20320;-78
2022/04/08 11:02:05;;;;;;;;;;;6.50;99.90;;;;;;5096122;28;19920;-79
2022/04/08 11:04:32;;;;;;;;;;;6.60;99.90;;;;;;5098853;28;19973;-80
2022/04/08 11:07:03;;;;;;;;;;;6.50;99.90;;;;;;5084744;28;19930;-81
2022/04/08 11:09:31;;;;;;;;;;;6.30;99.90;;;;;;5081845;28;19920;-80
2022/04/08 11:11:58;;;;;;;;;;;6.20;99.90;;;;;;5107281;28;19950;-82
2022/04/08 11:14:26;;;;;;;;;;;6.20;99.90;;;;;;5104262;28;19965;-81
2022/04/08 11:16:53;;;;;;;;;;;6.20;99.90;;;;;;5102236;27;19958;-81
2022/04/08 11:19:21;;;;;;;;;;;6.30;99.90;;;;;;5097728;28;20014;-80
2022/04/08 11:21:55;;;;;;;;;;;6.30;99.90;;;;;;5079942;28;19924;-80
2022/04/08 11:24:21;;;;;;;;;;;6.30;99.90;;;;;;5078732;28;19931;-79
2022/04/08 11:26:48;;;;;;;;;;;6.40;99.90;;;;;;5106838;28;19919;-79
2022/04/08 11:29:17;;;;;;;;;;;6.40;99.90;;;;;;5110014;27;19958;-79
2022/04/08 11:31:52;;;;;;;;;;;6.40;99.90;;;;;;5105375;27;20026;-79
2022/04/08 11:34:23;;;;;;;;;;;6.40;99.90;;;;;;5101928;28;19920;-78
2022/04/08 11:36:51;;;;;;;;;;;6.40;99.90;;;;;;5096551;28;20331;-78
2022/04/08 11:39:19;;;;;;;;;;;6.20;99.90;;;;;;5098062;28;20358;-77
2022/04/08 11:41:50;;;;;;;;;;;6.20;99.90;;;;;;5107567;28;19920;-77
2022/04/08 11:44:17;;;;;;;;;;;6.30;99.90;;;;;;5104663;28;19926;-77
2022/04/08 11:46:44;;;;;;;;;;;6.40;99.90;;;;;;5085939;28;20027;-76
2022/04/08 11:49:11;;;;;;;;;;;6.40;99.90;;;;;;5105115;28;20267;-76
2022/04/08 11:51:37;;;;;;;;;;;6.30;99.90;;;;;;5103676;28;19920;-77
2022/04/08 11:54:04;;;;;;;;;;;6.30;99.90;;;;;;5098771;28;19924;-76
2022/04/08 11:56:32;;;;;;;;;;;6.30;99.90;;;;;;5101812;27;19919;-74
2022/04/08 11:59:11;;;;;;;;;;;6.30;99.90;;;;;;5107353;27;19920;-74
2022/04/08 12:01:38;;;;;;;;;;;6.20;99.90;;;;;;5097646;28;20018;-74
2022/04/08 12:04:07;;;;;;;;;;;6.20;99.90;;;;;;5101947;28;19920;-74
2022/04/08 12:06:35;;;;;;;;;;;6.20;99.90;;;;;;5097540;28;19927;-74
2022/04/08 12:09:07;;;;;;;;;;;6.30;99.90;;;;;;5099243;28;19928;-74
2022/04/08 12:11:36;;;;;;;;;;;6.20;99.90;;;;;;5102566;27;19934;-73
2022/04/08 12:14:04;;;;;;;;;;;6.10;99.90;;;;;;5099404;28;19920;-73
2022/04/08 12:16:33;;;;;;;;;;;6.10;99.90;;;;;;5082855;28;19994;-73
2022/04/08 12:19:00;;;;;;;;;;;6.10;99.90;;;;;;5079748;28;20511;-73
2022/04/08 12:21:48;;;;;;;;;;;6.00;99.90;;;;;;5087391;28;20381;-73
2022/04/08 12:24:16;;;;;;;;;;;6.00;99.90;;;;;;5085435;28;19920;-72
2022/04/08 12:26:43;;;;;;;;;;;6.10;99.90;;;;;;5100721;28;19926;-73
2022/04/08 12:29:12;;;;;;;;;;;6.00;99.90;;;;;;5087599;28;20289;-72
2022/04/08 12:31:45;;;;;;;;;;;5.90;99.90;;;;;;5102751;28;19919;-72
2022/04/08 12:34:14;;;;;;;;;;;5.90;99.90;;;;;;5104968;28;19928;-71
2022/04/08 12:36:42;;;;;;;;;;;5.90;99.90;;;;;;5104764;28;19947;-70
2022/04/08 12:39:13;;;;;;;;;;;5.80;99.90;;;;;;5105784;28;19919;-70
2022/04/08 12:41:40;;;;;;;;;;;5.70;99.90;;;;;;5103826;28;19939;-70
2022/04/08 12:44:10;;;;;;;;;;;5.60;99.90;;;;;;5095901;28;19927;-69
2022/04/08 12:46:37;;;;;;;;;;;5.50;99.90;;;;;;5100554;28;19932;-70
2022/04/08 12:49:04;;;;;;;;;;;5.50;99.90;;;;;;5103996;28;19923;-69
2022/04/08 12:51:31;;;;;;;;;;;5.40;99.90;;;;;;5084578;28;20000;-69
2022/04/08 12:53:58;;;;;;;;;;;5.30;99.90;;;;;;5102554;28;19919;-69
2022/04/08 12:56:26;;;;;;;;;;;5.20;99.90;;;;;;5106173;28;19926;-69
2022/04/08 12:58:57;;;;;;;;;;;5.10;99.90;;;;;;5100658;28;20308;-68
2022/04/08 13:01:25;;;;;;;;;;;5.10;99.90;;;;;;5104159;28;19925;-68
2022/04/08 13:03:51;;;;;;;;;;;5.10;99.90;;;;;;5100707;28;19931;-68
2022/04/08 13:06:23;;;;;;;;;;;5.20;99.90;;;;;;5099649;28;19923;-68
2022/04/08 13:08:50;;;;;;;;;;;5.10;99.90;;;;;;5081257;28;19919;-68
2022/04/08 13:11:17;;;;;;;;;;;5.10;99.90;;;;;;5085430;28;19928;-68
2022/04/08 13:13:43;;;;;;;;;;;5.00;99.90;;;;;;5104737;28;20416;-68
2022/04/08 13:16:11;;;;;;;;;;;5.00;99.90;;;;;;5100717;28;20462;-68
2022/04/08 13:18:38;;;;;;;;;;;5.00;99.90;;;;;;5099217;28;19966;-68
2022/04/08 13:21:05;;;;;;;;;;;4.90;99.90;;;;;;5099190;28;20277;-68
2022/04/08 13:23:32;;;;;;;;;;;4.80;99.90;;;;;;5090581;28;19926;-68
2022/04/08 13:25:59;;;;;;;;;;;4.80;99.90;;;;;;5104242;28;19920;-67
2022/04/08 13:28:25;;;;;;;;;;;4.70;99.90;;;;;;5108628;28;19923;-67
2022/04/08 13:30:52;;;;;;;;;;;4.70;99.90;;;;;;5105287;28;20018;-67
2022/04/08 13:33:19;;;;;;;;;;;4.80;99.90;;;;;;5106201;28;19952;-67
2022/04/08 13:35:47;;;;;;;;;;;4.90;99.90;;;;;;5105605;28;20019;-67
2022/04/08 13:38:15;;;;;;;;;;;4.80;99.90;;;;;;5100268;28;19924;-67
2022/04/08 13:40:41;;;;;;;;;;;4.80;99.90;;;;;;5101304;28;20033;-67
2022/04/08 13:43:08;;;;;;;;;;;4.80;99.90;;;;;;5108026;27;20305;-66
2022/04/08 13:45:38;;;;;;;;;;;4.60;99.90;;;;;;5106189;28;20018;-66
2022/04/08 13:48:04;;;;;;;;;;;4.60;99.90;;;;;;5107240;28;19927;-67
2022/04/08 13:50:31;;;;;;;;;;;4.70;99.90;;;;;;5109343;28;20372;-68
2022/04/08 13:52:58;;;;;;;;;;;4.70;99.90;;;;;;5089669;27;20019;-67
2022/04/08 13:55:27;;;;;;;;;;;4.90;99.90;;;;;;5106558;27;19920;-67
2022/04/08 13:57:53;;;;;;;;;;;5.00;99.90;;;;;;5102624;28;19976;-67
2022/04/08 14:00:23;;;;;;;;;;;5.20;99.90;;;;;;5103182;28;19972;-67
2022/04/08 14:02:50;;;;;;;;;;;5.20;99.90;;;;;;5101703;28;20601;-67
2022/04/08 14:05:17;;;;;;;;;;;5.10;99.90;;;;;;5105391;28;19919;-67
2022/04/08 14:07:44;;;;;;;;;;;5.00;99.90;;;;;;5100072;28;19928;-67
2022/04/08 14:10:10;;;;;;;;;;;5.00;99.90;;;;;;5104742;28;20367;-67
2022/04/08 14:12:37;;;;;;;;;;;5.20;99.90;;;;;;5099507;28;19920;-67
2022/04/08 14:15:04;;;;;;;;;;;5.30;99.90;;;;;;5086414;28;19930;-66
2022/04/08 14:17:51;;;;;;;;;;;5.20;99.90;;;;;;5104317;28;19928;-66
2022/04/08 14:20:17;;;;;;;;;;;5.20;99.90;;;;;;5087137;28;19931;-67
2022/04/08 14:22:44;;;;;;;;;;;5.20;99.90;;;;;;5100025;28;19967;-67
2022/04/08 14:25:11;;;;;;;;;;;5.30;99.90;;;;;;5110705;28;19919;-66
2022/04/08 14:27:58;;;;;;;;;;;5.30;99.90;;;;;;5102067;28;19954;-66
2022/04/08 14:30:25;;;;;;;;;;;5.20;99.90;;;;;;5103798;28;20002;-66
2022/04/08 14:32:52;;;;;;;;;;;5.20;99.90;;;;;;5099516;28;19920;-66